Time;durP1;ratioP1;P1;durP2;ratioP2;P2;SDS_P1;SDS_P2;PMS_P1;PMS_P2;Temp;Humidity;BMP_temperature;BMP_pressure;BME280_temperature;BME280_humidity;BME280_pressure;Samples;Min_cycle;Max_cycle;Signal;HPM_P1;HPM_P2
2023/10/04 00:00:15;;;;;;;4.22;1.98;;;12.60;99.90;;;;;;5094446;28;20043;-62
2023/10/04 00:02:49;;;;;;;6.55;1.48;;;12.60;99.90;;;;;;5112352;28;20451;-62
2023/10/04 00:05:21;;;;;;;6.88;1.83;;;12.60;99.90;;;;;;5111370;28;20024;-63
2023/10/04 00:07:48;;;;;;;6.30;1.47;;;12.60;99.90;;;;;;5111357;28;20438;-62
2023/10/04 00:10:16;;;;;;;7.72;1.70;;;12.60;99.90;;;;;;5111520;28;20075;-62
2023/10/04 00:12:46;;;;;;;6.82;1.40;;;12.60;99.90;;;;;;5111158;28;20043;-62
2023/10/04 00:15:13;;;;;;;7.93;1.73;;;12.60;99.90;;;;;;5112640;28;20035;-62
2023/10/04 00:17:43;;;;;;;6.10;1.40;;;12.70;99.90;;;;;;5112317;28;20035;-62
2023/10/04 00:20:12;;;;;;;4.68;1.50;;;12.70;99.90;;;;;;5110328;28;20035;-63
2023/10/04 00:22:40;;;;;;;9.23;1.80;;;12.70;99.90;;;;;;5112318;28;20032;-63
2023/10/04 00:25:11;;;;;;;5.50;1.38;;;12.70;99.90;;;;;;5111416;28;20032;-62
2023/10/04 00:27:43;;;;;;;6.10;1.23;;;12.70;99.90;;;;;;5110953;28;20090;-63
2023/10/04 00:30:14;;;;;;;7.53;1.50;;;12.70;99.90;;;;;;5107267;28;20039;-63
2023/10/04 00:32:47;;;;;;;6.90;2.25;;;12.70;99.90;;;;;;5111127;28;20439;-62
2023/10/04 00:35:19;;;;;;;;;;;12.70;99.90;;;;;;5094352;28;20079;-63
2023/10/04 00:37:50;;;;;;;6.05;1.27;;;12.70;99.90;;;;;;5110965;28;20382;-63
2023/10/04 00:40:21;;;;;;;6.35;1.05;;;12.70;99.90;;;;;;5110896;28;20127;-62
2023/10/04 00:42:49;;;;;;;7.10;1.40;;;12.70;99.90;;;;;;5110700;28;20079;-63
2023/10/04 00:45:15;;;;;;;6.65;1.50;;;12.70;99.90;;;;;;5111068;28;20082;-62
2023/10/04 00:47:51;;;;;;;5.78;1.30;;;12.60;99.90;;;;;;5111899;28;20027;-63
2023/10/04 00:50:31;;;;;;;6.50;1.33;;;12.60;99.90;;;;;;5107219;28;20046;-62
2023/10/04 00:53:09;;;;;;;7.47;1.20;;;12.60;99.90;;;;;;5110418;28;20059;-63
2023/10/04 00:55:43;;;;;;;4.97;1.00;;;12.60;99.90;;;;;;5113792;27;20032;-63
2023/10/04 00:58:10;;;;;;;7.00;1.40;;;12.60;99.90;;;;;;5109402;28;20403;-62
2023/10/04 01:00:47;;;;;;;4.45;1.08;;;12.60;99.90;;;;;;5110049;28;20060;-62
2023/10/04 01:03:19;;;;;;;6.82;1.10;;;12.60;99.90;;;;;;5093522;28;20074;-62
2023/10/04 01:05:47;;;;;;;5.45;1.20;;;12.60;99.90;;;;;;5093414;28;20032;-62
2023/10/04 01:08:18;;;;;;;7.85;1.10;;;12.60;99.90;;;;;;5115106;27;20083;-62
2023/10/04 01:10:46;;;;;;;5.60;1.17;;;12.60;99.90;;;;;;5113128;27;20082;-63
2023/10/04 01:13:16;;;;;;;6.43;1.27;;;12.60;99.90;;;;;;5113809;27;20047;-62
2023/10/04 01:15:42;;;;;;;5.00;1.10;;;12.60;99.90;;;;;;5111331;27;20039;-62
2023/10/04 01:18:11;;;;;;;5.05;1.13;;;12.60;99.90;;;;;;5113140;27;20451;-62
2023/10/04 01:20:40;;;;;;;6.53;1.30;;;12.60;99.90;;;;;;5131670;27;20394;-63
2023/10/04 01:23:12;;;;;;;5.65;1.20;;;12.60;99.90;;;;;;5131478;27;20497;-62
2023/10/04 01:25:41;;;;;;;7.32;1.35;;;12.60;99.90;;;;;;5113049;27;20034;-62
2023/10/04 01:28:18;;;;;;;8.15;1.83;;;12.60;99.90;;;;;;5112755;27;20046;-63
2023/10/04 01:30:51;;;;;;;8.27;2.15;;;12.70;99.90;;;;;;5131340;27;20075;-62
2023/10/04 01:33:20;;;;;;;11.00;1.63;;;12.70;99.90;;;;;;5112846;27;20074;-63
2023/10/04 01:35:54;;;;;;;8.05;1.40;;;12.70;99.90;;;;;;5113050;28;20082;-63
2023/10/04 01:38:24;;;;;;;8.18;1.33;;;12.60;99.90;;;;;;5113202;27;20485;-63
2023/10/04 01:40:54;;;;;;;9.35;2.25;;;12.60;99.90;;;;;;5112883;27;20035;-62
2023/10/04 01:43:20;;;;;;;8.57;1.55;;;12.60;99.90;;;;;;5112949;28;20039;-62
2023/10/04 01:45:53;;;;;;;10.32;2.38;;;12.60;99.90;;;;;;5130857;27;20075;-62
2023/10/04 01:48:19;;;;;;;;;;;12.60;99.90;;;;;;5113456;28;20074;-63
2023/10/04 01:50:48;;;;;;;8.35;1.88;;;12.60;99.90;;;;;;5131655;27;19919;-62
2023/10/04 01:53:15;;;;;;;11.68;2.08;;;12.60;99.90;;;;;;5112950;28;20031;-63
2023/10/04 01:55:41;;;;;;;8.23;1.70;;;12.60;99.90;;;;;;5133425;27;20046;-62
2023/10/04 01:58:08;;;;;;;7.38;1.70;;;12.60;99.90;;;;;;5131412;28;20100;-62
2023/10/04 02:00:34;;;;;;;6.93;1.50;;;12.50;99.90;;;;;;5113416;28;20050;-62
2023/10/04 02:03:01;;;;;;;7.47;1.35;;;12.50;99.90;;;;;;5112802;28;20070;-63
2023/10/04 02:05:37;;;;;;;7.57;1.92;;;12.50;99.90;;;;;;5112662;28;21144;-62
2023/10/04 02:08:09;;;;;;;9.48;2.05;;;12.60;99.90;;;;;;5113075;28;20485;-62
2023/10/04 02:10:36;;;;;;;7.18;1.70;;;12.60;99.90;;;;;;5095711;28;20128;-63
2023/10/04 02:13:06;;;;;;;12.43;1.88;;;12.70;99.90;;;;;;5112653;28;20035;-63
2023/10/04 02:15:37;;;;;;;12.75;1.77;;;12.70;99.90;;;;;;5113142;28;20093;-63
2023/10/04 02:18:04;;;;;;;6.75;1.80;;;12.70;99.90;;;;;;5131291;28;20062;-62
2023/10/04 02:20:33;;;;;;;10.27;2.00;;;12.70;99.90;;;;;;5095888;28;20405;-62
2023/10/04 02:22:58;;;;;;;8.65;1.83;;;12.70;99.90;;;;;;5131246;28;20118;-63
2023/10/04 02:25:28;;;;;;;7.78;1.60;;;12.80;99.90;;;;;;5130925;28;20047;-62
2023/10/04 02:28:04;;;;;;;9.45;2.03;;;12.80;99.90;;;;;;5131262;28;20402;-62
2023/10/04 02:30:30;;;;;;;8.23;1.90;;;12.80;99.90;;;;;;5131195;28;20039;-63
2023/10/04 02:32:57;;;;;;;10.68;1.88;;;12.80;99.90;;;;;;5112782;28;20092;-63
2023/10/04 02:35:33;;;;;;;9.32;1.67;;;12.90;99.90;;;;;;5112362;28;20115;-63
2023/10/04 02:38:00;;;;;;;9.10;1.50;;;12.90;99.90;;;;;;5112749;28;20043;-63
2023/10/04 02:40:33;;;;;;;5.28;1.60;;;13.00;99.90;;;;;;5130860;28;20043;-62
2023/10/04 02:42:59;;;;;;;;;;;13.00;99.90;;;;;;5114776;27;20027;-63
2023/10/04 02:45:26;;;;;;;7.97;1.70;;;13.00;99.90;;;;;;5134718;27;19915;-62
2023/10/04 02:47:52;;;;;;;9.90;1.92;;;13.00;99.90;;;;;;5116464;27;20130;-63
2023/10/04 02:50:20;;;;;;;9.13;1.75;;;13.00;99.90;;;;;;5116684;27;20526;-62
2023/10/04 02:52:50;;;;;;;8.82;1.60;;;13.00;99.90;;;;;;5116568;27;20140;-62
2023/10/04 02:55:17;;;;;;;7.53;1.50;;;13.00;99.90;;;;;;5131013;27;20522;-63
2023/10/04 02:57:45;;;;;;;6.03;1.60;;;13.00;99.90;;;;;;5120316;27;20078;-63
2023/10/04 03:00:17;;;;;;;11.40;2.75;;;12.90;99.90;;;;;;5134610;27;20754;-62
2023/10/04 03:02:47;;;;;;;7.13;1.60;;;12.90;99.90;;;;;;5116618;27;20043;-63
2023/10/04 03:05:20;;;;;;;5.78;1.77;;;12.90;99.90;;;;;;5115851;27;20095;-62
2023/10/04 03:07:50;;;;;;;5.70;2.03;;;12.90;99.90;;;;;;5114480;27;20034;-63
2023/10/04 03:10:23;;;;;;;5.70;1.42;;;12.80;99.90;;;;;;5115512;27;20051;-62
2023/10/04 03:12:58;;;;;;;5.65;2.08;;;12.80;99.90;;;;;;5115657;27;20038;-63
2023/10/04 03:15:26;;;;;;;9.57;1.90;;;12.70;99.90;;;;;;5115553;27;20043;-62
2023/10/04 03:17:55;;;;;;;9.07;2.25;;;12.70;99.90;;;;;;5134231;27;20039;-63
2023/10/04 03:20:28;;;;;;;8.77;1.55;;;12.70;99.90;;;;;;5133868;27;20073;-62
2023/10/04 03:22:55;;;;;;;6.07;1.38;;;12.70;99.90;;;;;;5115802;27;20117;-63
2023/10/04 03:25:24;;;;;;;8.88;2.28;;;12.60;99.90;;;;;;5115040;27;20124;-62
2023/10/04 03:27:50;;;;;;;6.05;1.60;;;12.60;99.90;;;;;;5097961;27;20051;-62
2023/10/04 03:30:16;;;;;;;5.20;1.77;;;12.50;99.90;;;;;;5115761;27;20543;-63
2023/10/04 03:32:45;;;;;;;6.05;1.67;;;12.50;99.90;;;;;;5133569;27;20035;-63
2023/10/04 03:35:14;;;;;;;8.38;1.48;;;12.50;99.90;;;;;;5133803;27;20036;-63
2023/10/04 03:37:48;;;;;;;6.65;1.58;;;12.40;99.90;;;;;;5113939;27;20043;-63
2023/10/04 03:40:15;;;;;;;7.18;1.83;;;12.40;99.90;;;;;;5133938;27;20031;-63
2023/10/04 03:42:46;;;;;;;7.10;1.70;;;12.40;99.90;;;;;;5115212;27;20039;-62
2023/10/04 03:45:12;;;;;;;6.55;1.50;;;12.30;99.90;;;;;;5133579;27;20096;-62
2023/10/04 03:47:39;;;;;;;7.53;2.08;;;12.30;99.90;;;;;;5133551;27;20048;-62
2023/10/04 03:50:09;;;;;;;9.00;2.50;;;12.20;99.90;;;;;;5115440;27;20043;-63
2023/10/04 03:52:35;;;;;;;8.57;2.30;;;12.20;99.90;;;;;;5115241;27;20099;-62
2023/10/04 03:55:01;;;;;;;8.43;1.90;;;12.20;99.90;;;;;;5132488;27;20062;-63
2023/10/04 03:57:27;;;;;;;9.63;1.70;;;12.10;99.90;;;;;;5134172;27;20499;-62
2023/10/04 03:59:53;;;;;;;4.68;1.60;;;12.10;99.90;;;;;;5097617;27;20054;-61
2023/10/04 04:02:19;;;;;;;11.60;2.50;;;12.10;99.90;;;;;;5115110;27;20088;-62
2023/10/04 04:04:45;;;;;;;6.60;2.00;;;12.10;99.90;;;;;;5133243;27;20100;-62
2023/10/04 04:07:11;;;;;;;6.85;1.95;;;12.10;99.90;;;;;;5114935;27;20041;-62
2023/10/04 04:09:37;;;;;;;7.85;2.15;;;12.10;99.90;;;;;;5133004;27;20047;-62
2023/10/04 04:12:03;;;;;;;9.43;2.08;;;12.10;99.90;;;;;;5133543;27;20035;-62
2023/10/04 04:14:30;;;;;;;9.52;2.28;;;12.10;99.90;;;;;;5114719;27;20035;-62
2023/10/04 04:16:56;;;;;;;7.93;2.00;;;12.10;99.90;;;;;;5114759;27;20035;-62
2023/10/04 04:19:26;;;;;;;5.40;1.88;;;12.20;99.90;;;;;;5114582;27;20039;-63
2023/10/04 04:21:52;;;;;;;11.48;2.05;;;12.20;99.90;;;;;;5132927;27;20067;-61
2023/10/04 04:24:17;;;;;;;8.32;2.00;;;12.20;99.90;;;;;;5114670;27;20093;-62
2023/10/04 04:26:43;;;;;;;6.50;2.00;;;12.20;99.90;;;;;;5114329;27;20091;-63
2023/10/04 04:29:09;;;;;;;6.85;2.00;;;12.20;99.90;;;;;;5114677;27;20405;-63
2023/10/04 04:31:36;;;;;;;10.40;2.42;;;12.20;99.90;;;;;;5132838;27;20043;-62
2023/10/04 04:34:03;;;;;;;7.05;2.22;;;12.20;99.90;;;;;;5096776;27;20043;-63
2023/10/04 04:36:34;;;;;;;7.38;1.98;;;12.20;99.90;;;;;;5132584;27;20050;-63
2023/10/04 04:39:04;;;;;;;8.25;2.40;;;12.20;99.90;;;;;;5132619;27;20425;-62
2023/10/04 04:41:30;;;;;;;11.02;2.97;;;12.20;99.90;;;;;;5096745;27;20111;-62
2023/10/04 04:43:56;;;;;;;10.23;2.08;;;12.30;99.90;;;;;;5132503;27;20691;-62
2023/10/04 04:46:23;;;;;;;8.63;2.10;;;12.30;99.90;;;;;;5113898;27;20106;-63
2023/10/04 04:48:49;;;;;;;4.97;1.85;;;12.30;99.90;;;;;;5113580;27;20034;-62
2023/10/04 04:51:15;;;;;;;5.78;1.92;;;12.30;99.90;;;;;;5113628;27;20071;-63
2023/10/04 04:53:42;;;;;;;7.32;2.08;;;12.30;99.90;;;;;;5113624;27;20061;-62
2023/10/04 04:56:14;;;;;;;7.40;1.88;;;12.30;99.90;;;;;;5113801;27;20038;-63
2023/10/04 04:58:47;;;;;;;8.85;2.35;;;12.30;99.90;;;;;;5111580;27;20387;-63
2023/10/04 05:01:13;;;;;;;7.28;1.98;;;12.30;99.90;;;;;;5113415;27;20105;-62
2023/10/04 05:03:45;;;;;;;8.25;2.17;;;12.30;99.90;;;;;;5113283;27;20046;-63
2023/10/04 05:06:15;;;;;;;9.18;2.15;;;12.30;99.90;;;;;;5112794;27;20135;-62
2023/10/04 05:08:42;;;;;;;9.88;2.55;;;12.20;99.90;;;;;;5131533;27;20063;-62
2023/10/04 05:11:09;;;;;;;5.82;2.10;;;12.20;99.90;;;;;;5113258;27;20096;-63
2023/10/04 05:13:35;;;;;;;10.25;2.20;;;12.20;99.90;;;;;;5131916;27;20087;-63
2023/10/04 05:16:01;;;;;;;9.10;2.05;;;12.20;99.90;;;;;;5131724;27;20038;-62
2023/10/04 05:18:26;;;;;;;8.57;2.30;;;12.10;99.90;;;;;;5131846;27;20477;-62
2023/10/04 05:20:54;;;;;;;7.72;1.92;;;12.10;99.90;;;;;;5131602;27;20031;-62
2023/10/04 05:23:24;;;;;;;6.07;2.00;;;12.00;99.90;;;;;;5113074;27;20046;-62
2023/10/04 05:25:52;;;;;;;11.95;2.05;;;12.00;99.90;;;;;;5131462;27;20080;-63
2023/10/04 05:28:18;;;;;;;10.23;2.13;;;12.00;99.90;;;;;;5112980;27;20047;-62
2023/10/04 05:30:45;;;;;;;8.73;2.10;;;12.00;99.90;;;;;;5112838;27;20043;-62
2023/10/04 05:33:16;;;;;;;6.57;2.20;;;12.00;99.90;;;;;;5131473;27;20435;-62
2023/10/04 05:35:48;;;;;;;10.18;2.33;;;12.00;99.90;;;;;;5131591;27;20038;-63
2023/10/04 05:38:17;;;;;;;7.87;1.90;;;12.00;99.90;;;;;;5097375;27;20058;-62
2023/10/04 05:40:43;;;;;;;10.40;2.30;;;12.00;99.90;;;;;;5096165;27;20293;-62
2023/10/04 05:43:10;;;;;;;9.70;2.20;;;12.00;99.90;;;;;;5131282;27;20035;-62
2023/10/04 05:45:36;;;;;;;12.05;2.53;;;12.00;99.90;;;;;;5112300;27;20055;-63
2023/10/04 05:48:05;;;;;;;9.52;2.08;;;12.00;99.90;;;;;;5113108;28;20034;-62
2023/10/04 05:50:32;;;;;;;6.57;2.33;;;12.10;99.90;;;;;;5113467;27;20118;-62
2023/10/04 05:53:05;;;;;;;7.88;2.00;;;12.10;99.90;;;;;;5111674;28;20256;-62
2023/10/04 05:55:32;;;;;;;9.60;2.33;;;12.10;99.90;;;;;;5112665;28;20035;-62
2023/10/04 05:57:58;;;;;;;7.70;2.05;;;12.10;99.90;;;;;;5127560;27;20039;-63
2023/10/04 06:00:33;;;;;;;6.55;2.28;;;12.20;99.90;;;;;;5123884;28;20043;-62
2023/10/04 06:03:01;;;;;;;7.25;2.10;;;12.20;99.90;;;;;;5124539;27;20504;-62
2023/10/04 06:05:28;;;;;;;8.75;3.03;;;12.20;99.90;;;;;;5128288;28;20064;-61
2023/10/04 06:07:58;;;;;;;8.52;2.50;;;12.30;99.90;;;;;;5108892;27;20038;-62
2023/10/04 06:10:27;;;;;;;9.93;2.22;;;12.20;99.90;;;;;;5131630;27;20055;-61
2023/10/04 06:12:55;;;;;;;8.88;2.30;;;12.30;99.90;;;;;;5131090;28;20549;-62
2023/10/04 06:15:24;;;;;;;6.57;2.22;;;12.30;99.90;;;;;;5111607;28;20042;-62
2023/10/04 06:17:52;;;;;;;9.73;2.40;;;12.30;99.90;;;;;;5113762;27;20061;-62
2023/10/04 06:20:32;;;;;;;7.57;2.40;;;12.30;99.90;;;;;;5115073;27;20035;-62
2023/10/04 06:23:00;;;;;;;10.70;2.55;;;12.40;99.90;;;;;;5116286;27;20446;-62
2023/10/04 06:25:29;;;;;;;7.63;2.42;;;12.40;99.90;;;;;;5116335;27;20054;-62
2023/10/04 06:28:00;;;;;;;12.70;2.40;;;12.40;99.90;;;;;;5116512;27;20052;-62
2023/10/04 06:30:28;;;;;;;11.77;2.75;;;12.40;99.90;;;;;;5115327;27;20128;-62
2023/10/04 06:32:55;;;;;;;9.85;2.00;;;12.40;99.90;;;;;;5116406;27;20075;-62
2023/10/04 06:35:23;;;;;;;9.75;2.47;;;12.40;99.90;;;;;;5133747;27;20066;-62
2023/10/04 06:37:57;;;;;;;7.90;2.30;;;12.40;99.90;;;;;;5133384;27;20035;-62
2023/10/04 06:40:23;;;;;;;8.43;2.58;;;12.40;99.90;;;;;;5111529;27;20031;-62
2023/10/04 06:42:51;;;;;;;10.85;2.72;;;12.40;99.90;;;;;;5116646;27;20106;-62
2023/10/04 06:45:20;;;;;;;8.77;2.50;;;12.50;99.90;;;;;;5134726;27;20409;-63
2023/10/04 06:47:50;;;;;;;8.18;2.42;;;12.50;99.90;;;;;;5113655;27;20511;-62
2023/10/04 06:50:18;;;;;;;10.13;2.45;;;12.50;99.90;;;;;;5134074;27;20034;-62
2023/10/04 06:52:49;;;;;;;9.05;2.35;;;12.50;99.90;;;;;;5115963;27;20072;-62
2023/10/04 06:55:17;;;;;;;6.68;2.30;;;12.50;99.90;;;;;;5115672;27;20042;-62
2023/10/04 06:57:44;;;;;;;11.88;2.13;;;12.50;99.90;;;;;;5115722;27;20031;-62
2023/10/04 07:00:21;;;;;;;9.50;2.25;;;12.50;99.90;;;;;;5115971;27;20099;-62
2023/10/04 07:02:58;;;;;;;11.98;2.80;;;12.50;99.90;;;;;;5115597;27;20035;-62
2023/10/04 07:05:31;;;;;;;9.63;2.35;;;12.50;99.90;;;;;;5098331;27;20031;-62
2023/10/04 07:07:57;;;;;;;10.70;2.85;;;12.50;99.90;;;;;;5133819;27;20122;-62
2023/10/04 07:10:27;;;;;;;10.02;2.47;;;12.60;99.90;;;;;;5115061;27;20500;-62
2023/10/04 07:12:55;;;;;;;10.23;2.08;;;12.60;99.90;;;;;;5115407;27;20099;-62
2023/10/04 07:15:21;;;;;;;9.32;2.80;;;12.70;99.90;;;;;;5115611;27;20609;-62
2023/10/04 07:17:48;;;;;;;9.43;2.42;;;12.80;99.90;;;;;;5115509;27;20078;-63
2023/10/04 07:20:15;;;;;;;8.48;2.58;;;12.90;99.90;;;;;;5114727;27;20151;-62
2023/10/04 07:22:59;;;;;;;12.40;2.40;;;13.00;99.90;;;;;;5134106;27;20084;-62
2023/10/04 07:25:27;;;;;;;9.57;2.92;;;13.10;99.90;;;;;;5115708;27;20035;-62
2023/10/04 07:27:54;;;;;;;13.45;2.70;;;13.10;99.90;;;;;;5134041;27;20122;-62
2023/10/04 07:30:21;;;;;;;9.15;2.45;;;13.20;99.90;;;;;;5115143;27;20035;-62
2023/10/04 07:32:48;;;;;;;6.70;2.20;;;13.20;99.90;;;;;;5097872;27;20046;-62
2023/10/04 07:35:18;;;;;;;9.05;2.63;;;13.40;99.90;;;;;;5098008;27;20501;-62
2023/10/04 07:37:47;;;;;;;8.25;2.28;;;13.50;99.90;;;;;;5133876;27;20481;-62
2023/10/04 07:40:16;;;;;;;9.68;2.75;;;13.60;99.90;;;;;;5133619;27;20058;-62
2023/10/04 07:42:45;;;;;;;10.43;2.70;;;13.70;99.90;;;;;;5098288;27;20035;-62
2023/10/04 07:45:12;;;;;;;8.77;2.33;;;13.80;99.90;;;;;;5114494;27;20039;-63
2023/10/04 07:47:42;;;;;;;11.15;3.05;;;13.80;99.90;;;;;;5110621;27;20085;-62
2023/10/04 07:50:10;;;;;;;10.88;2.42;;;13.80;99.90;;;;;;5109590;27;20552;-62
2023/10/04 07:52:37;;;;;;;9.38;2.53;;;14.00;99.90;;;;;;5114728;27;20040;-62
2023/10/04 07:55:14;;;;;;;9.60;2.78;;;14.20;99.90;;;;;;5114371;27;20151;-63
2023/10/04 07:57:42;;;;;;;8.45;2.42;;;14.30;99.90;;;;;;5114844;27;20038;-62
2023/10/04 08:00:15;;;;;;;10.45;3.30;;;14.30;99.90;;;;;;5114817;27;20412;-62
2023/10/04 08:02:48;;;;;;;9.82;3.00;;;14.40;99.90;;;;;;5114284;27;20169;-62
2023/10/04 08:05:19;;;;;;;8.15;2.70;;;14.40;99.90;;;;;;5096870;27;20043;-63
2023/10/04 08:07:46;;;;;;;7.50;2.38;;;14.40;99.90;;;;;;5114347;27;20054;-62
2023/10/04 08:10:13;;;;;;;11.20;2.92;;;14.50;99.90;;;;;;5114644;27;20054;-62
2023/10/04 08:12:40;;;;;;;10.15;2.78;;;14.60;99.90;;;;;;5132747;27;20035;-62
2023/10/04 08:15:08;;;;;;;9.07;2.60;;;14.70;99.90;;;;;;5132827;27;20043;-62
2023/10/04 08:17:34;;;;;;;8.23;2.40;;;14.70;99.90;;;;;;5114528;27;20482;-62
2023/10/04 08:20:00;;;;;;;10.15;2.80;;;14.90;99.90;;;;;;5096668;27;20058;-63
2023/10/04 08:22:25;;;;;;;9.63;3.08;;;15.00;99.90;;;;;;5132669;27;20445;-63
2023/10/04 08:24:53;;;;;;;8.40;2.63;;;15.00;99.90;;;;;;5113963;27;20386;-62
2023/10/04 08:27:18;;;;;;;7.90;2.33;;;15.20;99.90;;;;;;5132472;27;20038;-62
2023/10/04 08:29:44;;;;;;;9.25;3.00;;;15.30;99.90;;;;;;5113718;27;20471;-63
2023/10/04 08:32:10;;;;;;;9.65;3.17;;;15.30;99.90;;;;;;5132733;27;20534;-62
2023/10/04 08:34:37;;;;;;;7.88;2.30;;;15.40;99.90;;;;;;5113810;27;20035;-62
2023/10/04 08:37:02;;;;;;;7.78;2.80;;;15.50;99.90;;;;;;5132218;27;20041;-61
2023/10/04 08:39:29;;;;;;;9.35;3.47;;;15.60;99.90;;;;;;5113757;27;20055;-61
2023/10/04 08:41:55;;;;;;;11.68;2.83;;;15.70;99.90;;;;;;5131517;27;20119;-62
2023/10/04 08:44:21;;;;;;;8.82;3.35;;;15.70;99.90;;;;;;5113743;27;20031;-62
2023/10/04 08:46:47;;;;;;;8.68;2.90;;;15.80;99.90;;;;;;5131775;27;20533;-62
2023/10/04 08:49:15;;;;;;;12.05;2.97;;;15.80;99.90;;;;;;5113756;27;20129;-62
2023/10/04 08:51:59;;;;;;;9.07;2.85;;;15.80;99.90;;;;;;5113719;27;20118;-62
2023/10/04 08:54:27;;;;;;;10.77;2.88;;;15.90;99.90;;;;;;5113884;27;20486;-63
2023/10/04 08:57:08;;;;;;;9.80;3.15;;;15.90;99.90;;;;;;5113145;27;20047;-63
2023/10/04 08:59:34;;;;;;;6.43;2.42;;;15.80;99.90;;;;;;5131862;27;20122;-62
2023/10/04 09:02:01;;;;;;;9.57;3.10;;;15.90;99.90;;;;;;5096522;27;20035;-62
2023/10/04 09:04:28;;;;;;;12.95;2.97;;;15.90;99.90;;;;;;5113729;27;20039;-62
2023/10/04 09:06:53;;;;;;;8.60;2.80;;;15.90;99.90;;;;;;5113104;27;20476;-63
2023/10/04 09:09:20;;;;;;;7.95;2.78;;;16.00;99.90;;;;;;5113253;27;20130;-62
2023/10/04 09:11:46;;;;;;;13.27;3.20;;;16.20;99.90;;;;;;5131737;27;20039;-62
2023/10/04 09:14:14;;;;;;;9.70;3.13;;;16.20;99.90;;;;;;5131964;27;20035;-62
2023/10/04 09:16:40;;;;;;;6.90;2.45;;;16.40;99.90;;;;;;5130005;27;20047;-63
2023/10/04 09:19:07;;;;;;;9.48;2.88;;;16.50;99.90;;;;;;5113760;27;20450;-62
2023/10/04 09:21:36;;;;;;;9.73;2.30;;;16.60;99.90;;;;;;5131858;27;20043;-63
2023/10/04 09:24:09;;;;;;;9.15;2.88;;;16.70;99.90;;;;;;5114055;27;20482;-62
2023/10/04 09:26:36;;;;;;;9.63;2.75;;;16.70;99.90;;;;;;5132245;27;20473;-62
2023/10/04 09:29:04;;;;;;;7.40;2.80;;;16.80;99.90;;;;;;5132068;27;20038;-62
2023/10/04 09:31:30;;;;;;;10.00;3.53;;;16.90;99.90;;;;;;5131848;27;20043;-62
2023/10/04 09:34:13;;;;;;;8.13;3.00;;;17.20;99.90;;;;;;5131688;27;20039;-62
2023/10/04 09:36:40;;;;;;;8.85;3.15;;;17.30;99.90;;;;;;5095999;27;20055;-62
2023/10/04 09:39:08;;;;;;;10.30;3.03;;;17.30;99.90;;;;;;5114908;27;20509;-62
2023/10/04 09:41:47;;;;;;;12.32;3.28;;;17.40;99.90;;;;;;5131667;27;20035;-62
2023/10/04 09:44:23;;;;;;;8.65;2.97;;;17.50;99.90;;;;;;5113375;27;20113;-62
2023/10/04 09:47:00;;;;;;;8.48;3.00;;;17.30;99.90;;;;;;5112556;27;20103;-62
2023/10/04 09:49:35;;;;;;;11.45;3.10;;;17.30;99.90;;;;;;5113183;27;20037;-62
2023/10/04 09:52:07;;;;;;;9.15;2.85;;;17.30;99.90;;;;;;5113228;28;20039;-62
2023/10/04 09:54:34;;;;;;;12.75;3.47;;;17.30;99.90;;;;;;5112886;27;20043;-63
2023/10/04 09:57:07;;;;;;;8.80;2.63;;;17.40;99.90;;;;;;5112551;28;20087;-62
2023/10/04 09:59:34;;;;;;;12.43;3.40;;;17.60;99.90;;;;;;5131388;28;20088;-62
2023/10/04 10:02:01;;;;;;;9.93;3.20;;;17.40;99.90;;;;;;5112807;28;20035;-62
2023/10/04 10:04:28;;;;;;;15.25;3.65;;;17.40;99.90;;;;;;5095104;28;20058;-62
2023/10/04 10:07:15;;;;;;;11.55;3.33;;;17.30;99.90;;;;;;5112572;28;20078;-62
2023/10/04 10:10:12;;;;;;;9.45;3.53;;;17.40;99.90;;;;;;5112658;28;20054;-62
2023/10/04 10:12:39;;;;;;;11.15;3.03;;;17.40;99.90;;;;;;5112424;28;20043;-61
2023/10/04 10:15:07;;;;;;;10.38;3.30;;;17.50;99.90;;;;;;5095859;28;20118;-63
2023/10/04 10:17:35;;;;;;;12.80;3.95;;;17.60;99.90;;;;;;5112762;28;20047;-62
2023/10/04 10:20:02;;;;;;;8.82;3.45;;;17.50;99.90;;;;;;5112342;28;20121;-62
2023/10/04 10:22:27;;;;;;;11.07;3.05;;;17.40;99.90;;;;;;5112710;28;20077;-62
2023/10/04 10:24:56;;;;;;;11.43;3.50;;;17.20;99.90;;;;;;5131066;28;20501;-62
2023/10/04 10:27:28;;;;;;;10.40;3.13;;;17.10;99.90;;;;;;5112681;28;20078;-62
2023/10/04 10:29:59;;;;;;;10.05;3.00;;;17.10;99.90;;;;;;5130909;28;20031;-62
2023/10/04 10:32:25;;;;;;;9.63;3.30;;;17.10;99.90;;;;;;5095515;28;20031;-62
2023/10/04 10:35:00;;;;;;;8.80;3.03;;;17.10;99.90;;;;;;5130910;28;20038;-62
2023/10/04 10:37:26;;;;;;;13.27;3.65;;;17.10;99.90;;;;;;5112528;28;20046;-62
2023/10/04 10:39:56;;;;;;;11.68;3.53;;;17.20;99.90;;;;;;5112510;28;20031;-62
2023/10/04 10:42:23;;;;;;;9.80;3.40;;;17.20;99.90;;;;;;5130936;28;20035;-62
2023/10/04 10:45:23;;;;;;;7.63;2.88;;;17.00;99.90;;;;;;5094782;28;20043;-61
2023/10/04 10:47:49;;;;;;;9.23;3.40;;;17.00;99.90;;;;;;5131009;28;20091;-62
2023/10/04 10:50:32;;;;;;;10.38;3.83;;;16.80;99.90;;;;;;5130888;28;20035;-61
2023/10/04 10:53:05;;;;;;;9.85;3.35;;;16.80;99.90;;;;;;5112217;28;20035;-62
2023/10/04 10:55:33;;;;;;;9.27;3.67;;;16.70;99.90;;;;;;5109737;28;20047;-62
2023/10/04 10:57:59;;;;;;;8.73;3.42;;;16.70;99.90;;;;;;5128078;27;20093;-62
2023/10/04 11:00:32;;;;;;;8.73;2.83;;;16.60;99.90;;;;;;5128141;28;20045;-62
2023/10/04 11:03:04;;;;;;;9.77;3.50;;;16.60;99.90;;;;;;5129674;27;20031;-62
2023/10/04 11:05:30;;;;;;;14.90;4.30;;;16.60;99.90;;;;;;5112293;27;20412;-62
2023/10/04 11:07:56;;;;;;;10.30;3.58;;;16.50;99.90;;;;;;5113918;27;20058;-62
2023/10/04 11:10:24;;;;;;;9.20;3.83;;;16.50;99.90;;;;;;5129325;27;20051;-62
2023/10/04 11:12:55;;;;;;;12.77;3.90;;;16.40;99.90;;;;;;5114082;27;20050;-62
2023/10/04 11:15:23;;;;;;;12.32;3.10;;;16.40;99.90;;;;;;5128204;27;20035;-62
2023/10/04 11:17:50;;;;;;;9.60;3.50;;;16.40;99.90;;;;;;5134615;27;20042;-62
2023/10/04 11:20:21;;;;;;;8.85;3.63;;;16.40;99.90;;;;;;5132871;27;20055;-63
2023/10/04 11:22:49;;;;;;;11.35;3.40;;;16.40;99.90;;;;;;5114387;27;20034;-63
2023/10/04 11:25:16;;;;;;;10.65;3.10;;;16.40;99.90;;;;;;5133359;27;20132;-62
2023/10/04 11:27:44;;;;;;;12.25;3.38;;;16.40;99.90;;;;;;5112150;27;20077;-62
2023/10/04 11:30:11;;;;;;;11.82;3.80;;;16.40;99.90;;;;;;5133235;27;20042;-63
2023/10/04 11:32:46;;;;;;;13.98;3.70;;;16.40;99.90;;;;;;5113706;27;20080;-62
2023/10/04 11:35:17;;;;;;;10.15;3.53;;;16.40;99.90;;;;;;5115710;27;20117;-62
2023/10/04 11:37:43;;;;;;;11.73;3.30;;;16.40;99.90;;;;;;5114738;27;20043;-62
2023/10/04 11:40:11;;;;;;;12.00;3.78;;;16.40;99.90;;;;;;5133529;27;20054;-62
2023/10/04 11:42:39;;;;;;;14.98;3.50;;;16.40;99.90;;;;;;5133461;27;20043;-62
2023/10/04 11:45:23;;;;;;;8.27;3.45;;;16.40;99.90;;;;;;5115086;27;20074;-62
2023/10/04 11:47:59;;;;;;;12.77;3.58;;;16.40;99.90;;;;;;5114343;27;20054;-62
2023/10/04 11:50:39;;;;;;;9.43;3.33;;;16.40;99.90;;;;;;5114770;27;20085;-62
2023/10/04 11:53:05;;;;;;;8.60;3.42;;;16.30;99.90;;;;;;5133404;27;20084;-62
2023/10/04 11:55:36;;;;;;;11.88;3.33;;;16.30;99.90;;;;;;5114637;27;20078;-62
2023/10/04 11:58:06;;;;;;;14.88;5.22;;;16.30;99.90;;;;;;5114650;27;20055;-62
2023/10/04 12:00:32;;;;;;;11.40;3.58;;;16.30;99.90;;;;;;5132939;27;20034;-63
2023/10/04 12:02:59;;;;;;;9.20;3.40;;;16.30;99.90;;;;;;5114417;27;20051;-62
2023/10/04 12:05:25;;;;;;;12.48;3.30;;;16.30;99.90;;;;;;5132960;27;20113;-62
2023/10/04 12:07:51;;;;;;;10.88;3.47;;;16.30;99.90;;;;;;5114605;27;20051;-62
2023/10/04 12:10:18;;;;;;;9.52;3.35;;;16.30;99.90;;;;;;5113959;27;20057;-62
2023/10/04 12:12:45;;;;;;;10.90;3.40;;;16.30;99.90;;;;;;5132479;27;20041;-62
2023/10/04 12:15:11;;;;;;;12.65;3.85;;;16.40;99.90;;;;;;5131962;27;20038;-62
2023/10/04 12:17:37;;;;;;;12.57;3.08;;;16.40;99.90;;;;;;5113742;27;20094;-63
2023/10/04 12:20:07;;;;;;;11.48;3.33;;;16.30;99.90;;;;;;5132793;27;20084;-62
2023/10/04 12:22:32;;;;;;;10.52;3.38;;;16.30;99.90;;;;;;5114053;27;20043;-63
2023/10/04 12:25:01;;;;;;;12.88;3.30;;;16.20;99.90;;;;;;5132581;27;20430;-62
2023/10/04 12:27:27;;;;;;;8.20;3.22;;;16.10;99.90;;;;;;5132711;27;20115;-63
2023/10/04 12:29:52;;;;;;;10.88;3.70;;;16.00;99.90;;;;;;5114668;27;20035;-62
2023/10/04 12:32:19;;;;;;;10.55;3.30;;;15.90;99.90;;;;;;5114424;27;20064;-62
2023/10/04 12:34:48;;;;;;;9.88;3.28;;;15.90;99.90;;;;;;5113697;27;20038;-62
2023/10/04 12:37:13;;;;;;;12.25;3.10;;;15.80;99.90;;;;;;5114321;27;20421;-62
2023/10/04 12:39:43;;;;;;;14.23;3.20;;;15.80;99.90;;;;;;5113421;27;20051;-62
2023/10/04 12:42:09;;;;;;;13.00;3.45;;;15.80;99.90;;;;;;5113833;27;20050;-62
2023/10/04 12:44:41;;;;;;;9.52;3.08;;;15.80;99.90;;;;;;5112686;27;20051;-62
2023/10/04 12:47:08;;;;;;;11.13;3.20;;;15.90;99.90;;;;;;5113776;27;20047;-62
2023/10/04 12:49:34;;;;;;;11.48;3.92;;;16.10;99.90;;;;;;5097038;27;20485;-62
2023/10/04 12:52:00;;;;;;;14.73;3.67;;;16.20;99.90;;;;;;5113651;27;20128;-63
2023/10/04 12:54:28;;;;;;;9.02;3.30;;;16.30;99.90;;;;;;5113418;27;20055;-63